createdAt,value
2018-09-13T00:00:28.257Z,19.00
2018-09-13T00:02:56.786Z,19.00
2018-09-13T00:05:25.415Z,19.10
2018-09-13T00:07:53.890Z,19.00
2018-09-13T00:10:22.382Z,19.00
2018-09-13T00:12:50.889Z,19.00
2018-09-13T00:15:20.098Z,19.00
2018-09-13T00:17:49.151Z,19.00
2018-09-13T00:20:17.663Z,18.90
2018-09-13T00:22:46.076Z,18.90
2018-09-13T00:25:14.628Z,18.90
2018-09-13T00:27:43.082Z,18.90
2018-09-13T00:30:11.689Z,18.80
2018-09-13T00:32:40.116Z,18.90
2018-09-13T00:35:08.503Z,18.90
2018-09-13T00:37:36.977Z,18.90
2018-09-13T00:40:05.507Z,18.80
2018-09-13T00:42:34.355Z,18.80
2018-09-13T00:45:03.681Z,18.70
2018-09-13T00:47:32.990Z,18.70
2018-09-13T01:07:23.215Z,18.60
2018-09-13T01:09:53.702Z,18.70
2018-09-13T01:12:23.466Z,18.70
2018-09-13T01:14:52.804Z,18.70
2018-09-13T01:17:21.364Z,18.70
2018-09-13T01:37:11.353Z,18.80
2018-09-13T01:39:39.837Z,18.80
2018-09-13T01:42:08.325Z,18.80
2018-09-13T01:44:36.844Z,18.80
2018-09-13T01:47:05.414Z,18.80
2018-09-13T01:49:33.897Z,18.80
2018-09-13T02:09:24.444Z,18.80
2018-09-13T02:11:52.923Z,18.80
2018-09-13T02:14:21.403Z,18.80
2018-09-13T02:16:49.895Z,18.80
2018-09-13T02:19:18.933Z,18.80
2018-09-13T02:21:47.381Z,18.80
2018-09-13T02:24:15.877Z,18.80
2018-09-13T02:26:44.837Z,18.70
2018-09-13T02:29:13.387Z,18.70
2018-09-13T02:31:41.874Z,18.70
2018-09-13T02:34:10.364Z,18.70
2018-09-13T02:36:38.939Z,18.70
2018-09-13T02:56:29.370Z,18.40
2018-09-13T02:58:58.425Z,18.30
2018-09-13T03:01:26.853Z,18.30
2018-09-13T03:03:55.398Z,18.30
2018-09-13T03:06:24.157Z,18.30
2018-09-13T03:08:52.556Z,18.20
2018-09-13T03:11:21.078Z,18.20
2018-09-13T03:31:10.721Z,18.10
2018-09-13T03:33:39.415Z,18.00
2018-09-13T03:36:07.906Z,18.00
2018-09-13T03:38:36.398Z,18.00
2018-09-13T03:41:05.230Z,18.00
2018-09-13T04:00:55.236Z,17.90
2018-09-13T04:03:23.919Z,17.90
2018-09-13T04:05:52.522Z,17.80
2018-09-13T04:08:22.137Z,17.80
2018-09-13T04:10:50.779Z,17.80
2018-09-13T04:13:19.273Z,17.70
2018-09-13T04:15:47.761Z,17.70
2018-09-13T04:18:16.289Z,17.80
2018-09-13T04:20:45.601Z,17.70
2018-09-13T04:23:14.744Z,17.70
2018-09-13T04:25:43.265Z,17.60
2018-09-13T04:28:11.818Z,17.60
2018-09-13T04:30:40.418Z,17.60
2018-09-13T04:33:09.011Z,17.60
2018-09-13T04:35:38.293Z,17.60
2018-09-13T04:38:07.520Z,17.50
2018-09-13T04:40:37.252Z,17.50
2018-09-13T04:43:05.852Z,17.50
2018-09-13T04:45:34.309Z,17.50
2018-09-13T04:48:02.830Z,17.50
2018-09-13T04:50:31.405Z,17.50
2018-09-13T05:10:21.670Z,17.30
2018-09-13T05:12:50.752Z,17.30
2018-09-13T05:15:19.205Z,17.20
2018-09-13T05:17:47.726Z,17.30
2018-09-13T05:20:16.269Z,17.30
2018-09-13T05:22:44.837Z,17.30
2018-09-13T05:25:13.393Z,17.30
2018-09-13T05:45:04.150Z,17.40
2018-09-13T05:47:33.381Z,17.50
2018-09-13T05:50:01.877Z,17.50
2018-09-13T05:52:30.425Z,17.50
2018-09-13T06:12:19.830Z,17.60
2018-09-13T06:14:48.318Z,17.70
2018-09-13T06:17:17.450Z,17.70
2018-09-13T06:19:46.555Z,17.70
2018-09-13T06:22:14.980Z,17.80
2018-09-13T06:24:43.473Z,17.80
2018-09-13T06:27:11.993Z,17.90
2018-09-13T06:29:40.437Z,17.90
2018-09-13T06:32:08.969Z,18.00
2018-09-13T06:34:37.533Z,18.00
2018-09-13T06:37:06.068Z,18.10
2018-09-13T06:39:34.594Z,18.10
2018-09-13T06:42:03.293Z,18.10
2018-09-13T06:44:33.022Z,18.20
2018-09-13T06:47:01.490Z,18.30
2018-09-13T06:49:30.105Z,18.30
2018-09-13T07:09:20.902Z,18.50
2018-09-13T07:11:49.429Z,18.40
2018-09-13T07:14:17.958Z,18.40
2018-09-13T07:16:46.493Z,18.40
2018-09-13T07:19:15.051Z,18.40
2018-09-13T07:21:44.862Z,18.40
2018-09-13T07:24:13.434Z,18.40
2018-09-13T07:26:41.991Z,18.40
2018-09-13T07:29:10.473Z,18.40
2018-09-13T07:31:39.591Z,18.40
2018-09-13T07:34:10.039Z,18.40
2018-09-13T07:36:38.654Z,18.50
2018-09-13T07:56:29.446Z,18.70
2018-09-13T07:58:57.862Z,18.70
2018-09-13T08:01:26.357Z,18.80
2018-09-13T08:03:54.839Z,18.80
2018-09-13T08:06:23.389Z,18.90
2018-09-13T08:08:51.844Z,18.90
2018-09-13T08:11:20.445Z,19.00
2018-09-13T08:13:49.685Z,19.10
2018-09-13T08:16:18.134Z,19.00
2018-09-13T08:18:46.859Z,19.10
2018-09-13T08:21:16.572Z,19.10
2018-09-13T08:23:45.237Z,19.10
2018-09-13T08:26:14.641Z,19.20
2018-09-13T08:28:43.065Z,19.20
2018-09-13T08:31:11.526Z,19.20
2018-09-13T08:33:40.062Z,19.20
2018-09-13T08:36:08.599Z,19.30
2018-09-13T08:38:37.737Z,19.30
2018-09-13T08:41:06.259Z,19.40
2018-09-13T08:43:34.843Z,19.50
2018-09-13T08:46:03.294Z,19.50
2018-09-13T08:48:32.126Z,19.50
2018-09-13T08:51:00.748Z,19.50
2018-09-13T09:10:51.409Z,19.90
2018-09-13T09:13:21.314Z,20.00
2018-09-13T09:15:50.674Z,20.10
2018-09-13T09:18:19.205Z,20.10
2018-09-13T09:20:47.758Z,20.20
2018-09-13T09:23:16.242Z,20.20
2018-09-13T09:43:06.389Z,20.60
2018-09-13T09:45:35.099Z,20.70
2018-09-13T09:48:03.773Z,20.70
2018-09-13T09:50:32.226Z,20.80
2018-09-13T09:53:01.391Z,20.80
2018-09-13T09:55:30.054Z,20.80
2018-09-13T09:57:58.799Z,20.90
2018-09-13T10:00:32.678Z,20.90
2018-09-13T10:03:01.985Z,20.90
2018-09-13T10:05:30.446Z,21.00
2018-09-13T10:07:58.921Z,21.00
2018-09-13T10:10:27.553Z,21.10
2018-09-13T10:12:56.062Z,21.10
2018-09-13T10:15:29.882Z,21.10
2018-09-13T10:35:25.749Z,21.70
2018-09-13T10:38:01.321Z,21.80
2018-09-13T10:40:35.239Z,21.90
2018-09-13T10:43:08.936Z,22.00
2018-09-13T10:45:42.741Z,22.10
2018-09-13T10:48:16.792Z,22.20
2018-09-13T10:50:50.724Z,22.30
2018-09-13T11:10:40.656Z,22.70
2018-09-13T11:13:13.652Z,22.70
2018-09-13T11:15:42.184Z,22.70
2018-09-13T11:18:10.792Z,22.70
2018-09-13T11:20:39.337Z,22.70
2018-09-13T11:23:07.886Z,22.70
2018-09-13T11:25:36.413Z,22.70
2018-09-13T11:28:04.846Z,22.80
2018-09-13T11:30:33.362Z,22.80
2018-09-13T11:33:02.337Z,22.80
2018-09-13T11:35:32.623Z,22.90
2018-09-13T11:38:01.201Z,22.90
2018-09-13T11:40:29.866Z,22.90
2018-09-13T11:42:58.878Z,22.90
2018-09-13T11:45:27.369Z,23.00
2018-09-13T11:47:55.797Z,23.00
2018-09-13T11:50:24.960Z,23.20
2018-09-13T11:52:54.240Z,23.20
2018-09-13T11:55:22.743Z,23.30
2018-09-13T11:57:51.278Z,23.40
2018-09-13T12:17:41.553Z,23.90
2018-09-13T12:20:10.045Z,24.00
2018-09-13T12:22:38.592Z,23.90
2018-09-13T12:25:08.295Z,23.90
2018-09-13T12:27:36.897Z,23.80
2018-09-13T12:30:05.630Z,23.90
2018-09-13T12:32:34.145Z,23.90
2018-09-13T12:35:02.772Z,23.90
2018-09-13T12:37:32.064Z,24.00
2018-09-13T12:57:21.823Z,23.80
2018-09-13T12:59:50.818Z,23.70
2018-09-13T13:02:19.256Z,23.70
2018-09-13T13:04:47.713Z,23.60
2018-09-13T13:07:17.550Z,23.60
2018-09-13T13:09:46.884Z,23.70
2018-09-13T13:12:15.352Z,23.70
2018-09-13T13:14:44.006Z,23.80
2018-09-13T13:17:12.445Z,23.90
2018-09-13T13:19:41.714Z,24.00
2018-09-13T13:22:10.137Z,24.00
2018-09-13T13:24:38.694Z,24.00
2018-09-13T13:27:09.481Z,24.00
2018-09-13T13:29:38.407Z,24.00
2018-09-13T13:49:28.530Z,24.90
2018-09-13T14:09:18.795Z,27.70
2018-09-13T14:11:47.928Z,27.90
2018-09-13T14:31:37.996Z,26.40
2018-09-13T14:34:06.489Z,26.00
2018-09-13T14:36:35.082Z,25.70
2018-09-13T14:56:27.234Z,25.30
2018-09-13T14:58:55.869Z,25.30
2018-09-13T15:18:54.340Z,22.80
2018-09-13T15:21:22.801Z,22.60
2018-09-13T15:23:51.209Z,22.20
2018-09-13T15:26:20.759Z,22.00
2018-09-13T15:46:12.161Z,24.40
2018-09-13T15:48:41.618Z,24.40
2018-09-13T15:51:10.100Z,24.20
2018-09-13T16:11:00.117Z,21.60
2018-09-13T16:13:28.615Z,21.40
2018-09-13T16:15:57.226Z,21.30
2018-09-13T16:18:25.704Z,21.30
2018-09-13T16:20:54.170Z,21.30
2018-09-13T16:40:49.826Z,21.20
2018-09-13T17:00:39.560Z,21.10
2018-09-13T17:03:08.217Z,21.10
2018-09-13T17:05:36.646Z,21.00
2018-09-13T17:08:05.239Z,20.90
2018-09-13T17:10:36.044Z,20.90
2018-09-13T17:13:04.610Z,20.90
2018-09-13T17:32:54.339Z,20.70
2018-09-13T17:35:23.122Z,20.60
2018-09-13T17:55:13.600Z,20.40
2018-09-13T17:57:42.414Z,20.30
2018-09-13T18:00:11.932Z,20.20
2018-09-13T18:02:40.498Z,20.00
2018-09-13T18:05:09.289Z,19.90
2018-09-13T18:24:58.584Z,19.50
2018-09-13T18:27:26.993Z,19.30
2018-09-13T18:29:56.869Z,19.20
2018-09-13T18:49:46.528Z,18.80
2018-09-13T18:52:15.005Z,18.80
2018-09-13T19:12:04.662Z,18.70
2018-09-13T19:14:33.159Z,18.70
2018-09-13T19:17:02.399Z,18.80
2018-09-13T19:19:31.101Z,19.00
2018-09-13T19:21:59.640Z,18.80
2018-09-13T19:41:49.605Z,18.60
2018-09-13T19:44:18.258Z,18.50
2018-09-13T20:04:08.417Z,18.50
2018-09-13T20:06:38.283Z,18.50
2018-09-13T20:09:09.761Z,18.50
2018-09-13T20:11:38.968Z,18.50
2018-09-13T20:14:08.448Z,18.50
2018-09-13T20:16:37.383Z,18.50
2018-09-13T20:19:05.855Z,18.50
2018-09-13T20:21:34.845Z,18.50
2018-09-13T20:24:04.514Z,18.50
2018-09-13T20:26:33.163Z,18.50
2018-09-13T20:29:01.674Z,18.40
2018-09-13T20:31:31.055Z,18.40
2018-09-13T20:33:59.601Z,18.40
2018-09-13T20:36:28.086Z,18.40
2018-09-13T20:38:58.450Z,18.40
2018-09-13T20:58:49.267Z,18.20
2018-09-13T21:01:18.595Z,18.10
2018-09-13T21:21:09.431Z,18.20
2018-09-13T21:23:37.845Z,18.20
2018-09-13T21:26:06.692Z,18.20
2018-09-13T21:45:56.632Z,18.10
2018-09-13T21:48:25.805Z,18.10
2018-09-13T21:50:54.273Z,18.10
2018-09-13T22:10:45.034Z,17.90
2018-09-13T22:13:13.572Z,17.90
2018-09-13T22:15:42.029Z,17.80
2018-09-13T22:35:32.113Z,17.70
2018-09-13T22:38:00.612Z,17.70
2018-09-13T22:40:29.886Z,17.70
2018-09-13T22:42:58.508Z,17.70
2018-09-13T22:45:26.966Z,17.70
2018-09-13T23:05:17.822Z,17.60
2018-09-13T23:07:46.713Z,17.60
2018-09-13T23:10:15.473Z,17.60
2018-09-13T23:12:44.945Z,17.60
2018-09-13T23:15:14.042Z,17.50
2018-09-13T23:17:42.542Z,17.50
2018-09-13T23:20:12.030Z,17.50
